createdAt,value
2018-08-18T00:00:47.245Z,0.00
2018-08-18T00:01:47.393Z,0.00
2018-08-18T00:02:47.535Z,0.00
2018-08-18T00:03:47.676Z,0.00
2018-08-18T00:04:47.816Z,0.00
2018-08-18T00:05:47.967Z,0.00
2018-08-18T00:06:48.112Z,0.00
2018-08-18T00:07:48.254Z,0.00
2018-08-18T00:08:48.387Z,0.00
2018-08-18T00:09:48.532Z,0.00
2018-08-18T00:10:48.681Z,0.00
2018-08-18T00:11:48.817Z,0.00
2018-08-18T00:12:48.963Z,0.00
2018-08-18T00:13:49.099Z,0.00
2018-08-18T00:14:49.237Z,0.00
2018-08-18T00:15:49.367Z,0.00
2018-08-18T00:16:49.529Z,0.00
2018-08-18T00:17:49.670Z,0.00
2018-08-18T00:18:49.804Z,0.00
2018-08-18T00:19:49.949Z,0.00
2018-08-18T00:20:50.087Z,0.00
2018-08-18T00:21:50.232Z,0.00
2018-08-18T00:22:50.366Z,0.00
2018-08-18T00:23:50.515Z,0.00
2018-08-18T00:24:50.651Z,0.00
2018-08-18T00:25:50.806Z,0.00
2018-08-18T00:26:50.949Z,0.00
2018-08-18T00:27:51.099Z,0.00
2018-08-18T00:28:51.238Z,0.00
2018-08-18T00:29:51.351Z,0.00
2018-08-18T00:30:51.483Z,0.00
2018-08-18T00:31:51.629Z,0.00
2018-08-18T00:32:51.767Z,0.00
2018-08-18T00:33:51.910Z,0.00
2018-08-18T00:34:52.067Z,0.00
2018-08-18T00:35:52.204Z,0.00
2018-08-18T00:36:52.420Z,0.00
2018-08-18T00:37:52.512Z,0.00
2018-08-18T00:38:52.654Z,0.00
2018-08-18T00:39:52.793Z,0.00
2018-08-18T00:40:52.939Z,0.00
2018-08-18T00:41:53.135Z,0.00
2018-08-18T00:42:53.218Z,0.00
2018-08-18T00:43:53.356Z,0.00
2018-08-18T00:44:53.500Z,0.00
2018-08-18T00:45:53.660Z,0.00
2018-08-18T00:46:53.798Z,0.00
2018-08-18T00:47:53.942Z,0.00
2018-08-18T00:48:54.087Z,0.00
2018-08-18T00:49:54.265Z,0.00
2018-08-18T00:50:54.407Z,0.00
2018-08-18T00:51:54.546Z,0.00
2018-08-18T00:52:54.701Z,0.00
2018-08-18T00:53:54.837Z,0.00
2018-08-18T00:54:54.984Z,0.00
2018-08-18T00:55:56.711Z,0.00
2018-08-18T00:56:58.128Z,0.00
2018-08-18T00:57:55.380Z,0.00
2018-08-18T00:58:55.524Z,0.00
2018-08-18T00:59:55.663Z,0.00
2018-08-18T01:00:55.803Z,0.00
2018-08-18T01:01:55.944Z,0.00
2018-08-18T01:02:56.091Z,0.00
2018-08-18T01:03:56.232Z,0.00
2018-08-18T01:04:56.375Z,0.00
2018-08-18T01:05:56.518Z,0.00
2018-08-18T01:06:56.662Z,0.00
2018-08-18T01:07:56.804Z,0.00
2018-08-18T01:08:56.948Z,0.00
2018-08-18T01:09:57.090Z,0.00
2018-08-18T01:10:57.317Z,0.00
2018-08-18T01:11:57.543Z,0.00
2018-08-18T01:12:57.656Z,0.00
2018-08-18T01:13:57.722Z,0.00
2018-08-18T01:14:57.983Z,0.00
2018-08-18T01:15:57.981Z,0.00
2018-08-18T01:16:58.128Z,0.00
2018-08-18T01:17:58.269Z,0.00
2018-08-18T01:18:58.411Z,0.00
2018-08-18T01:19:58.551Z,0.00
2018-08-18T01:20:58.688Z,0.00
2018-08-18T01:21:58.832Z,0.00
2018-08-18T01:22:58.972Z,0.00
2018-08-18T01:23:59.123Z,0.00
2018-08-18T01:24:59.259Z,0.00
2018-08-18T01:25:59.407Z,0.00
2018-08-18T01:26:59.575Z,0.00
2018-08-18T01:27:59.706Z,0.00
2018-08-18T01:28:59.853Z,0.00
2018-08-18T01:30:00.008Z,0.00
2018-08-18T01:31:00.142Z,0.00
2018-08-18T01:32:00.280Z,0.00
2018-08-18T01:33:00.461Z,0.00
2018-08-18T01:34:00.543Z,0.00
2018-08-18T01:35:00.675Z,0.00
2018-08-18T01:36:00.816Z,0.00
2018-08-18T01:37:00.995Z,0.00
2018-08-18T01:38:01.127Z,0.00
2018-08-18T01:39:01.274Z,0.00
2018-08-18T01:40:01.438Z,0.00
2018-08-18T01:41:01.570Z,0.00
2018-08-18T01:42:01.704Z,0.00
2018-08-18T01:43:01.869Z,0.00
2018-08-18T01:44:02.006Z,0.00
2018-08-18T01:45:02.148Z,0.00
2018-08-18T01:46:02.296Z,0.00
2018-08-18T01:47:02.437Z,0.00
2018-08-18T01:48:02.581Z,0.00
2018-08-18T01:49:02.716Z,0.00
2018-08-18T01:50:02.879Z,0.00
2018-08-18T01:51:03.011Z,0.00
2018-08-18T01:52:03.152Z,0.00
2018-08-18T01:53:03.299Z,0.00
2018-08-18T01:54:03.477Z,0.00
2018-08-18T01:55:03.606Z,0.00
2018-08-18T01:56:03.743Z,0.00
2018-08-18T01:57:03.886Z,0.00
2018-08-18T01:58:04.053Z,0.00
2018-08-18T01:59:04.187Z,0.00
2018-08-18T02:00:04.329Z,0.00
2018-08-18T02:01:04.461Z,0.00
2018-08-18T02:02:04.623Z,0.00
2018-08-18T02:03:04.753Z,0.00
2018-08-18T02:04:04.898Z,0.00
2018-08-18T02:05:05.039Z,0.00
2018-08-18T02:06:05.175Z,0.00
2018-08-18T02:07:05.309Z,0.00
2018-08-18T02:08:05.448Z,0.00
2018-08-18T02:09:05.591Z,0.00
2018-08-18T02:10:05.730Z,0.00
2018-08-18T02:11:05.874Z,0.00
2018-08-18T02:12:06.012Z,0.00
2018-08-18T02:13:06.148Z,0.00
2018-08-18T02:14:06.291Z,0.00
2018-08-18T02:15:06.430Z,0.00
2018-08-18T02:16:06.600Z,0.00
2018-08-18T02:17:06.717Z,0.00
2018-08-18T02:18:06.860Z,0.00
2018-08-18T02:19:07.004Z,0.00
2018-08-18T02:20:07.234Z,0.00
2018-08-18T02:21:07.280Z,0.00
2018-08-18T02:22:07.422Z,0.00
2018-08-18T02:23:07.566Z,0.00
2018-08-18T02:24:07.699Z,0.00
2018-08-18T02:25:07.845Z,0.00
2018-08-18T02:26:07.983Z,0.00
2018-08-18T02:27:08.126Z,0.00
2018-08-18T02:28:08.267Z,0.00
2018-08-18T02:29:08.407Z,0.00
2018-08-18T02:30:08.547Z,0.00
2018-08-18T02:31:08.686Z,0.00
2018-08-18T02:32:08.827Z,0.00
2018-08-18T02:33:08.968Z,0.00
2018-08-18T02:34:09.110Z,0.00
2018-08-18T02:35:09.837Z,0.00
2018-08-18T02:36:09.411Z,0.00
2018-08-18T02:37:09.549Z,0.00
2018-08-18T02:38:09.688Z,0.00
2018-08-18T02:39:09.826Z,0.00
2018-08-18T02:40:09.997Z,0.00
2018-08-18T02:41:10.124Z,0.00
2018-08-18T02:42:10.268Z,0.00
2018-08-18T02:43:10.404Z,0.00
2018-08-18T02:44:10.566Z,0.00
2018-08-18T02:45:10.704Z,0.00
2018-08-18T02:46:10.861Z,0.00
2018-08-18T02:47:10.987Z,0.00
2018-08-18T02:48:11.144Z,0.00
2018-08-18T02:49:11.278Z,0.00
2018-08-18T02:50:12.019Z,0.00
2018-08-18T02:51:11.591Z,0.00
2018-08-18T02:52:11.720Z,0.00
2018-08-18T02:53:11.864Z,0.00
2018-08-18T02:54:12.003Z,0.00
2018-08-18T02:55:12.156Z,0.00
2018-08-18T02:56:12.296Z,0.00
2018-08-18T02:57:12.430Z,0.00
2018-08-18T02:58:12.577Z,0.00
2018-08-18T02:59:12.722Z,0.00
2018-08-18T03:00:12.965Z,0.00
2018-08-18T03:01:12.969Z,0.00
2018-08-18T03:02:13.109Z,0.00
2018-08-18T03:03:13.284Z,0.00
2018-08-18T03:04:13.417Z,0.00
2018-08-18T03:05:13.556Z,0.00
2018-08-18T03:06:13.696Z,0.00
2018-08-18T03:07:13.841Z,0.00
2018-08-18T03:08:13.998Z,0.00
2018-08-18T03:09:14.112Z,0.00
2018-08-18T03:10:14.253Z,0.00
2018-08-18T03:11:14.416Z,0.00
2018-08-18T03:12:14.553Z,0.00
2018-08-18T03:13:14.694Z,0.00
2018-08-18T03:14:14.846Z,0.00
2018-08-18T03:15:14.979Z,0.00
2018-08-18T03:16:15.118Z,0.00
2018-08-18T03:17:15.257Z,0.00
2018-08-18T03:18:15.400Z,0.00
2018-08-18T03:19:15.536Z,0.00
2018-08-18T03:20:15.672Z,0.00
2018-08-18T03:21:15.810Z,0.00
2018-08-18T03:22:15.952Z,0.00
2018-08-18T03:23:16.087Z,0.00
2018-08-18T03:24:16.232Z,0.00
2018-08-18T03:25:16.370Z,0.00
2018-08-18T03:26:16.513Z,0.00
2018-08-18T03:27:16.653Z,0.00
2018-08-18T03:28:16.786Z,0.00
2018-08-18T03:29:16.929Z,0.00
2018-08-18T03:30:17.071Z,0.00
2018-08-18T03:31:17.216Z,0.00
2018-08-18T03:32:17.348Z,0.00
2018-08-18T03:33:17.492Z,0.00
2018-08-18T03:34:17.634Z,0.00
2018-08-18T03:35:17.769Z,0.00
2018-08-18T03:36:17.910Z,0.00
2018-08-18T03:37:18.048Z,0.00
2018-08-18T03:38:18.199Z,0.00
2018-08-18T03:39:18.344Z,0.00
2018-08-18T03:40:18.486Z,0.00
2018-08-18T03:41:18.625Z,0.00
2018-08-18T03:42:18.761Z,0.00
2018-08-18T03:43:18.912Z,0.00
2018-08-18T03:44:19.053Z,0.00
2018-08-18T03:45:19.232Z,0.00
2018-08-18T03:46:19.380Z,0.00
2018-08-18T03:47:19.533Z,0.00
2018-08-18T03:48:19.674Z,0.00
2018-08-18T03:49:19.813Z,0.00
2018-08-18T03:50:19.952Z,0.00
2018-08-18T03:51:20.093Z,4.00
2018-08-18T03:52:20.283Z,4.00
2018-08-18T03:53:20.373Z,0.00
2018-08-18T03:54:20.518Z,0.00
2018-08-18T03:55:20.646Z,4.00
2018-08-18T03:56:20.785Z,4.00
2018-08-18T03:57:20.941Z,4.00
2018-08-18T03:58:21.075Z,4.00
2018-08-18T03:59:21.215Z,8.00
2018-08-18T04:00:21.350Z,4.00
2018-08-18T04:01:21.519Z,8.00
2018-08-18T04:02:21.643Z,12.00
2018-08-18T04:03:21.783Z,12.00
2018-08-18T04:04:21.921Z,16.00
2018-08-18T04:05:22.059Z,16.00
2018-08-18T04:06:22.198Z,20.00
2018-08-18T04:07:22.354Z,24.00
2018-08-18T04:08:22.493Z,24.00
2018-08-18T04:09:22.684Z,32.00
2018-08-18T04:10:22.774Z,36.00
2018-08-18T04:11:22.918Z,44.00
2018-08-18T04:12:23.057Z,44.00
2018-08-18T04:13:23.194Z,48.00
2018-08-18T04:14:23.353Z,56.00
2018-08-18T04:15:23.484Z,60.00
2018-08-18T04:16:23.621Z,68.00
2018-08-18T04:17:23.763Z,72.00
2018-08-18T04:18:23.927Z,80.00
2018-08-18T04:19:24.065Z,88.00
2018-08-18T04:20:24.208Z,92.00
2018-08-18T04:21:24.341Z,100.00
2018-08-18T04:22:24.507Z,112.00
2018-08-18T04:23:24.641Z,124.00
2018-08-18T04:24:24.779Z,132.00
2018-08-18T04:25:24.964Z,140.00
2018-08-18T04:26:25.058Z,152.00
2018-08-18T04:27:25.193Z,160.00
2018-08-18T04:28:25.338Z,172.00
2018-08-18T04:29:25.483Z,184.00
2018-08-18T04:30:25.654Z,192.00
2018-08-18T04:31:25.790Z,200.00
2018-08-18T04:32:25.936Z,212.00
2018-08-18T04:33:26.071Z,224.00
2018-08-18T04:34:26.234Z,236.00
2018-08-18T04:35:26.393Z,248.00
2018-08-18T04:36:26.513Z,256.00
2018-08-18T04:37:26.655Z,264.00
2018-08-18T04:38:26.788Z,280.00
2018-08-18T04:39:26.931Z,292.00
2018-08-18T04:40:27.066Z,304.00
2018-08-18T04:41:27.203Z,312.00
2018-08-18T04:42:27.401Z,324.00
2018-08-18T04:43:27.540Z,336.00
2018-08-18T04:44:27.687Z,344.00
2018-08-18T04:45:27.825Z,356.00
2018-08-18T04:46:27.967Z,368.00
2018-08-18T04:47:28.101Z,376.00
2018-08-18T04:48:28.235Z,388.00
2018-08-18T04:49:28.384Z,400.00
2018-08-18T04:50:28.568Z,408.00
2018-08-18T04:51:28.663Z,420.00
2018-08-18T04:52:28.800Z,432.00
2018-08-18T04:53:28.946Z,440.00
2018-08-18T04:54:29.090Z,452.00
2018-08-18T04:55:29.231Z,464.00
2018-08-18T04:56:29.371Z,480.00
2018-08-18T04:57:29.519Z,488.00
2018-08-18T04:58:29.655Z,500.00
2018-08-18T04:59:29.899Z,512.00
2018-08-18T05:00:29.934Z,524.00
2018-08-18T05:01:30.075Z,536.00
2018-08-18T05:02:30.214Z,544.00
2018-08-18T05:03:30.428Z,556.00
2018-08-18T05:04:30.489Z,572.00
2018-08-18T05:05:30.635Z,580.00
2018-08-18T05:06:30.780Z,596.00
2018-08-18T05:07:30.919Z,612.00
2018-08-18T05:08:31.058Z,628.00
2018-08-18T05:09:31.207Z,644.00
2018-08-18T05:10:31.341Z,660.00
2018-08-18T05:11:31.511Z,672.00
2018-08-18T05:12:31.623Z,680.00
2018-08-18T05:13:31.765Z,696.00
2018-08-18T05:14:31.907Z,704.00
2018-08-18T05:15:32.051Z,716.00
2018-08-18T05:16:32.189Z,728.00
2018-08-18T05:17:32.330Z,736.00
2018-08-18T05:18:32.470Z,748.00
2018-08-18T05:19:32.608Z,756.00
2018-08-18T05:20:32.773Z,760.00
2018-08-18T05:21:32.900Z,772.00
2018-08-18T05:22:33.048Z,784.00
2018-08-18T05:23:33.190Z,804.00
2018-08-18T05:24:33.338Z,816.00
2018-08-18T05:25:33.475Z,828.00
2018-08-18T05:26:33.621Z,840.00
2018-08-18T05:27:33.749Z,852.00
2018-08-18T05:28:33.915Z,860.00
2018-08-18T05:29:34.054Z,868.00
2018-08-18T05:30:34.200Z,868.00
2018-08-18T05:31:34.325Z,876.00
2018-08-18T05:32:34.548Z,876.00
2018-08-18T05:33:34.562Z,864.00
2018-08-18T05:34:34.706Z,812.00
2018-08-18T05:35:34.859Z,748.00
2018-08-18T05:36:35.093Z,696.00
2018-08-18T05:37:35.155Z,664.00
2018-08-18T05:38:35.298Z,652.00
2018-08-18T05:39:35.442Z,652.00
2018-08-18T05:40:35.574Z,668.00
2018-08-18T05:41:35.745Z,692.00
2018-08-18T05:42:35.881Z,700.00
2018-08-18T05:43:36.038Z,708.00
2018-08-18T05:44:36.177Z,704.00
2018-08-18T05:45:36.319Z,700.00
2018-08-18T05:46:36.473Z,696.00
2018-08-18T05:47:36.704Z,700.00
2018-08-18T05:48:36.746Z,708.00
2018-08-18T05:49:36.892Z,720.00
2018-08-18T05:50:37.063Z,732.00
2018-08-18T05:51:37.202Z,748.00
2018-08-18T05:52:37.352Z,768.00
2018-08-18T05:53:37.488Z,784.00
2018-08-18T05:54:37.649Z,804.00
2018-08-18T05:55:37.788Z,824.00
2018-08-18T05:56:37.931Z,840.00
2018-08-18T05:57:38.097Z,852.00
2018-08-18T05:58:38.240Z,860.00
2018-08-18T05:59:38.386Z,864.00
2018-08-18T06:00:38.523Z,868.00
2018-08-18T06:01:38.679Z,864.00
2018-08-18T06:02:38.808Z,868.00
2018-08-18T06:03:38.945Z,884.00
2018-08-18T06:04:39.087Z,908.00
2018-08-18T06:05:39.295Z,940.00
2018-08-18T06:06:39.374Z,952.00
2018-08-18T06:07:39.516Z,956.00
2018-08-18T06:08:39.696Z,948.00
2018-08-18T06:09:39.839Z,940.00
2018-08-18T06:10:39.973Z,924.00
2018-08-18T06:11:40.111Z,916.00
2018-08-18T06:12:40.258Z,904.00
2018-08-18T06:13:40.391Z,896.00
2018-08-18T06:14:40.537Z,888.00
2018-08-18T06:15:40.671Z,888.00
2018-08-18T06:16:40.807Z,892.00
2018-08-18T06:17:40.983Z,908.00
2018-08-18T06:18:41.128Z,932.00
2018-08-18T06:19:41.269Z,956.00
2018-08-18T06:20:41.438Z,980.00
2018-08-18T06:21:41.579Z,1004.00
2018-08-18T06:22:41.725Z,1032.00
2018-08-18T06:23:41.863Z,1056.00
2018-08-18T06:24:42.009Z,1076.00
2018-08-18T06:25:42.149Z,1096.00
2018-08-18T06:26:42.291Z,1112.00
2018-08-18T06:27:42.441Z,1140.00
2018-08-18T06:28:42.591Z,1172.00
2018-08-18T06:29:42.729Z,1200.00
2018-08-18T06:30:42.861Z,1224.00
2018-08-18T06:31:43.028Z,1240.00
2018-08-18T06:32:43.233Z,1268.00
2018-08-18T06:33:43.258Z,1296.00
2018-08-18T06:34:43.509Z,1324.00
2018-08-18T06:35:43.563Z,1348.00
2018-08-18T06:36:43.702Z,1352.00
2018-08-18T06:37:43.839Z,1348.00
2018-08-18T06:38:43.976Z,1352.00
2018-08-18T06:39:44.128Z,1360.00
2018-08-18T06:40:44.262Z,1384.00
2018-08-18T06:41:44.492Z,1396.00
2018-08-18T06:42:44.542Z,1416.00
2018-08-18T06:43:44.706Z,1428.00
2018-08-18T06:44:44.844Z,1432.00
2018-08-18T06:45:44.985Z,1452.00
2018-08-18T06:46:45.161Z,1472.00
2018-08-18T06:47:45.290Z,1484.00
2018-08-18T06:48:45.434Z,1496.00
2018-08-18T06:49:45.573Z,1508.00
2018-08-18T06:50:45.740Z,1524.00
2018-08-18T06:51:45.877Z,1536.00
2018-08-18T06:52:46.012Z,1564.00
2018-08-18T06:53:46.162Z,1604.00
2018-08-18T06:54:46.370Z,1656.00
2018-08-18T06:55:46.482Z,1708.00
2018-08-18T06:56:46.617Z,1768.00
2018-08-18T06:57:46.766Z,1812.00
2018-08-18T06:58:46.937Z,1840.00
2018-08-18T06:59:47.075Z,1876.00
2018-08-18T07:00:47.223Z,1908.00
2018-08-18T07:01:47.359Z,1964.00
2018-08-18T07:02:47.510Z,2024.00
2018-08-18T07:03:47.643Z,2080.00
2018-08-18T07:04:47.783Z,2128.00
2018-08-18T07:05:47.926Z,2180.00
2018-08-18T07:06:48.086Z,2208.00
2018-08-18T07:07:48.220Z,2248.00
2018-08-18T07:08:48.365Z,2280.00
2018-08-18T07:09:48.532Z,2304.00
2018-08-18T07:10:48.717Z,2344.00
2018-08-18T07:11:48.862Z,2392.00
2018-08-18T07:12:48.999Z,2376.00
2018-08-18T07:13:49.140Z,2364.00
2018-08-18T07:14:49.284Z,2372.00
2018-08-18T07:15:49.425Z,2376.00
2018-08-18T07:16:49.563Z,2400.00
2018-08-18T07:17:49.707Z,2436.00
2018-08-18T07:18:49.854Z,2444.00
2018-08-18T07:19:49.992Z,2464.00
2018-08-18T07:20:50.133Z,2472.00
2018-08-18T07:21:50.273Z,2488.00
2018-08-18T07:22:50.412Z,2472.00
2018-08-18T07:23:50.557Z,2484.00
2018-08-18T07:24:50.694Z,2504.00
2018-08-18T07:25:50.838Z,2500.00
2018-08-18T07:26:50.978Z,2492.00
2018-08-18T07:27:51.118Z,2476.00
2018-08-18T07:28:51.391Z,2408.00
2018-08-18T07:29:51.425Z,2340.00
2018-08-18T07:30:51.546Z,2300.00
2018-08-18T07:31:51.687Z,2212.00
2018-08-18T07:32:51.829Z,2128.00
2018-08-18T07:33:51.968Z,2068.00
2018-08-18T07:34:52.111Z,2116.00
2018-08-18T07:35:52.249Z,2096.00
2018-08-18T07:36:52.424Z,2072.00
2018-08-18T07:37:52.559Z,1952.00
2018-08-18T07:38:52.701Z,1928.00
2018-08-18T07:39:52.836Z,1952.00
2018-08-18T07:40:52.990Z,2024.00
2018-08-18T07:41:53.135Z,2028.00
2018-08-18T07:42:53.275Z,2008.00
2018-08-18T07:43:53.421Z,2020.00
2018-08-18T07:44:53.601Z,2036.00
2018-08-18T07:45:53.731Z,2024.00
2018-08-18T07:46:53.876Z,2000.00
2018-08-18T07:47:54.015Z,2024.00
2018-08-18T07:48:54.186Z,2020.00
2018-08-18T07:49:54.324Z,2020.00
2018-08-18T07:50:54.489Z,2024.00
2018-08-18T07:51:54.632Z,2052.00
2018-08-18T07:52:54.765Z,2068.00
2018-08-18T07:53:54.908Z,2108.00
2018-08-18T07:54:55.085Z,2140.00
2018-08-18T07:55:55.221Z,2156.00
2018-08-18T07:56:55.402Z,2168.00
2018-08-18T07:57:55.531Z,2184.00
2018-08-18T07:58:55.672Z,2208.00
2018-08-18T07:59:55.869Z,2244.00
2018-08-18T08:00:55.967Z,2308.00
2018-08-18T08:01:56.110Z,2440.00
2018-08-18T08:02:56.266Z,2624.00
2018-08-18T08:03:56.404Z,2796.00
2018-08-18T08:04:56.542Z,2904.00
2018-08-18T08:05:56.696Z,2952.00
2018-08-18T08:06:56.827Z,2912.00
2018-08-18T08:07:56.972Z,2852.00
2018-08-18T08:08:57.111Z,2824.00
2018-08-18T08:09:57.261Z,2848.00
2018-08-18T08:10:57.402Z,2904.00
2018-08-18T08:11:57.547Z,2936.00
2018-08-18T08:12:57.764Z,2936.00
2018-08-18T08:13:57.831Z,2872.00
2018-08-18T08:14:57.974Z,2772.00
2018-08-18T08:15:58.115Z,2612.00
2018-08-18T08:16:58.256Z,2472.00
2018-08-18T08:17:58.394Z,2400.00
2018-08-18T08:18:58.535Z,2360.00
2018-08-18T08:19:58.681Z,2328.00
2018-08-18T08:20:58.826Z,2316.00
2018-08-18T08:21:58.965Z,2312.00
2018-08-18T08:22:59.108Z,2304.00
2018-08-18T08:23:59.245Z,2324.00
2018-08-18T08:24:59.391Z,2376.00
2018-08-18T08:25:59.538Z,2296.00
2018-08-18T08:26:59.682Z,2312.00
2018-08-18T08:27:59.823Z,2456.00
2018-08-18T08:28:59.962Z,2436.00
2018-08-18T08:30:00.107Z,2416.00
2018-08-18T08:31:00.255Z,2428.00
2018-08-18T08:32:00.394Z,2436.00
2018-08-18T08:33:00.541Z,2456.00
2018-08-18T08:34:00.691Z,2508.00
2018-08-18T08:35:00.831Z,2528.00
2018-08-18T08:36:00.972Z,2556.00
2018-08-18T08:37:01.134Z,2544.00
2018-08-18T08:38:01.311Z,2532.00
2018-08-18T08:39:01.460Z,2520.00
2018-08-18T08:40:01.598Z,2520.00
2018-08-18T08:41:01.775Z,2540.00
2018-08-18T08:42:01.933Z,2564.00
2018-08-18T08:43:02.061Z,2568.00
2018-08-18T08:44:02.203Z,2564.00
2018-08-18T08:45:02.703Z,2572.00
2018-08-18T08:46:02.510Z,2560.00
2018-08-18T08:47:02.544Z,2552.00
2018-08-18T08:48:02.687Z,2560.00
2018-08-18T08:49:02.905Z,2596.00
2018-08-18T08:50:03.867Z,2644.00
2018-08-18T08:52:35.312Z,2796.00
2018-08-18T08:53:35.449Z,2836.00
2018-08-18T08:54:35.594Z,2840.00
2018-08-18T08:55:35.739Z,2796.00
2018-08-18T08:56:35.885Z,2744.00
2018-08-18T08:57:36.022Z,2748.00
2018-08-18T08:58:36.168Z,2752.00
2018-08-18T08:59:36.346Z,2776.00
2018-08-18T09:00:36.482Z,2836.00
2018-08-18T09:01:36.619Z,2860.00
2018-08-18T09:02:36.761Z,2904.00
2018-08-18T09:03:36.899Z,2992.00
2018-08-18T09:04:37.064Z,3100.00
2018-08-18T09:05:37.205Z,3204.00
2018-08-18T09:06:37.349Z,3172.00
2018-08-18T09:07:37.491Z,3132.00
2018-08-18T09:08:37.678Z,3104.00
2018-08-18T09:09:37.815Z,3076.00
2018-08-18T09:10:37.957Z,3104.00
2018-08-18T09:11:38.095Z,3204.00
2018-08-18T09:12:38.259Z,3204.00
2018-08-18T09:13:38.398Z,3308.00
2018-08-18T09:14:38.539Z,3348.00
2018-08-18T09:15:38.691Z,3348.00
2018-08-18T09:16:38.821Z,3360.00
2018-08-18T09:17:38.964Z,3324.00
2018-08-18T09:18:39.110Z,3320.00
2018-08-18T09:19:39.234Z,3324.00
2018-08-18T09:20:39.373Z,3336.00
2018-08-18T09:21:39.520Z,3364.00
2018-08-18T09:22:39.664Z,3396.00
2018-08-18T09:23:40.556Z,3428.00
2018-08-18T09:24:39.960Z,3460.00
2018-08-18T09:25:40.108Z,3448.00
2018-08-18T09:26:40.252Z,3464.00
2018-08-18T09:27:40.394Z,3524.00
2018-08-18T09:28:40.535Z,3580.00
2018-08-18T09:29:40.674Z,3588.00
2018-08-18T09:30:40.816Z,3632.00
2018-08-18T09:31:40.969Z,3732.00
2018-08-18T09:32:41.328Z,3740.00
2018-08-18T09:33:41.271Z,3752.00
2018-08-18T09:34:41.446Z,3812.00
2018-08-18T09:35:41.584Z,3848.00
2018-08-18T09:36:41.722Z,3892.00
2018-08-18T09:37:41.872Z,3916.00
2018-08-18T09:38:42.009Z,3924.00
2018-08-18T09:39:42.148Z,3932.00
2018-08-18T09:40:42.290Z,3984.00
2018-08-18T09:41:42.463Z,4036.00
2018-08-18T09:42:42.605Z,4148.00
2018-08-18T09:43:42.741Z,4236.00
2018-08-18T09:44:42.909Z,4204.00
2018-08-18T09:45:43.042Z,4184.00
2018-08-18T09:46:43.203Z,4132.00
2018-08-18T09:47:43.363Z,4096.00
2018-08-18T09:48:43.498Z,4048.00
2018-08-18T09:49:43.679Z,4092.00
2018-08-18T09:50:43.796Z,4156.00
2018-08-18T09:51:43.972Z,4276.00
2018-08-18T09:52:44.042Z,4412.00
2018-08-18T09:53:44.180Z,4288.00
2018-08-18T09:54:44.323Z,4196.00
2018-08-18T09:55:44.464Z,4168.00
2018-08-18T09:56:44.615Z,3692.00
2018-08-18T09:57:44.751Z,4296.00
2018-08-18T09:58:44.900Z,4268.00
2018-08-18T09:59:45.037Z,4260.00
2018-08-18T10:00:45.181Z,4320.00
2018-08-18T10:01:46.296Z,4432.00
2018-08-18T10:02:45.502Z,4540.00
2018-08-18T10:03:45.658Z,4628.00
2018-08-18T10:04:45.802Z,4616.00
2018-08-18T10:05:45.936Z,4660.00
2018-08-18T10:06:46.106Z,4720.00
2018-08-18T10:07:46.222Z,4740.00
2018-08-18T10:08:46.365Z,4876.00
2018-08-18T10:09:46.509Z,5072.00
2018-08-18T10:10:46.650Z,5016.00
2018-08-18T10:11:46.792Z,5004.00
2018-08-18T10:12:46.940Z,4756.00
2018-08-18T10:13:47.709Z,4548.00
2018-08-18T10:14:47.214Z,4532.00
2018-08-18T10:15:47.367Z,4660.00
2018-08-18T10:16:47.542Z,4712.00
2018-08-18T10:17:47.681Z,4856.00
2018-08-18T10:18:47.826Z,4984.00
2018-08-18T10:19:47.989Z,5108.00
2018-08-18T10:20:48.121Z,5196.00
2018-08-18T10:21:48.266Z,5088.00
2018-08-18T10:22:48.426Z,5128.00
2018-08-18T10:23:53.721Z,5092.00
2018-08-18T10:24:48.683Z,4988.00
2018-08-18T10:25:49.718Z,5056.00
2018-08-18T10:26:49.413Z,4604.00
2018-08-18T10:27:51.909Z,4476.00
2018-08-18T10:28:54.756Z,4516.00
2018-08-18T10:29:49.520Z,4836.00
2018-08-18T10:30:50.068Z,4852.00
2018-08-18T10:31:49.827Z,5016.00
2018-08-18T10:32:49.998Z,5292.00
2018-08-18T10:33:50.141Z,5148.00
2018-08-18T10:34:50.280Z,5124.00
2018-08-18T10:35:52.773Z,5028.00
2018-08-18T10:36:50.623Z,4856.00
2018-08-18T10:37:50.659Z,4796.00
2018-08-18T10:38:50.798Z,4916.00
2018-08-18T10:39:50.940Z,4944.00
2018-08-18T10:40:51.143Z,4700.00
2018-08-18T10:41:51.233Z,4788.00
2018-08-18T10:42:51.710Z,4800.00
2018-08-18T10:43:51.753Z,4612.00
2018-08-18T10:44:51.517Z,4692.00
2018-08-18T10:45:51.655Z,4800.00
2018-08-18T10:46:51.795Z,5040.00
2018-08-18T10:47:51.940Z,5420.00
2018-08-18T10:48:52.082Z,5924.00
2018-08-18T10:49:52.257Z,6060.00
2018-08-18T10:50:52.397Z,5920.00
2018-08-18T10:51:52.537Z,5488.00
2018-08-18T10:52:52.695Z,5624.00
2018-08-18T10:53:52.830Z,6000.00
2018-08-18T10:54:52.980Z,5484.00
2018-08-18T10:55:53.131Z,5568.00
2018-08-18T10:56:53.264Z,5432.00
2018-08-18T10:57:53.413Z,4888.00
2018-08-18T10:58:53.570Z,5152.00
2018-08-18T10:59:53.710Z,5580.00
2018-08-18T11:00:53.854Z,5608.00
2018-08-18T11:01:54.021Z,5316.00
2018-08-18T11:02:54.158Z,5420.00
2018-08-18T11:03:54.320Z,5600.00
2018-08-18T11:04:54.442Z,5844.00
2018-08-18T11:05:54.594Z,5544.00
2018-08-18T11:06:54.737Z,5848.00
2018-08-18T11:07:54.892Z,5284.00
2018-08-18T11:08:55.067Z,5668.00
2018-08-18T11:09:55.217Z,5760.00
2018-08-18T11:10:55.348Z,5724.00
2018-08-18T11:11:55.514Z,5796.00
2018-08-18T11:12:55.667Z,5872.00
2018-08-18T11:13:55.826Z,5840.00
2018-08-18T11:14:55.968Z,5928.00
2018-08-18T11:15:56.111Z,5904.00
2018-08-18T11:16:56.281Z,5928.00
2018-08-18T11:17:56.416Z,5972.00
2018-08-18T11:18:56.562Z,6004.00
2018-08-18T11:19:56.724Z,6104.00
2018-08-18T11:20:56.871Z,6240.00
2018-08-18T11:21:57.084Z,6168.00
2018-08-18T11:22:57.170Z,6784.00
2018-08-18T11:23:57.320Z,6760.00
2018-08-18T11:24:57.470Z,6888.00
2018-08-18T11:25:57.615Z,7180.00
2018-08-18T11:26:57.760Z,8100.00
2018-08-18T11:27:57.896Z,8208.00
2018-08-18T11:28:58.061Z,5900.00
2018-08-18T11:29:58.202Z,6036.00
2018-08-18T11:30:58.338Z,6556.00
2018-08-18T11:31:58.476Z,8060.00
2018-08-18T11:32:58.620Z,6836.00
2018-08-18T11:33:58.766Z,6816.00
2018-08-18T11:34:58.909Z,7552.00
2018-08-18T11:35:59.051Z,7544.00
2018-08-18T11:36:59.193Z,7612.00
2018-08-18T11:37:59.338Z,8960.00
2018-08-18T11:38:59.487Z,7520.00
2018-08-18T11:39:59.624Z,8680.00
2018-08-18T11:40:59.769Z,6920.00
2018-08-18T11:41:59.914Z,6576.00
2018-08-18T11:43:00.057Z,8228.00
2018-08-18T11:44:00.206Z,9224.00
2018-08-18T11:45:00.357Z,5640.00
2018-08-18T11:46:00.497Z,8764.00
2018-08-18T11:47:00.658Z,9400.00
2018-08-18T11:48:00.787Z,7280.00
2018-08-18T11:49:00.940Z,8900.00
2018-08-18T11:50:01.080Z,9188.00
2018-08-18T11:51:01.222Z,8936.00
2018-08-18T11:52:01.363Z,9544.00
2018-08-18T11:53:01.503Z,8040.00
2018-08-18T11:54:01.653Z,7672.00
2018-08-18T11:55:01.794Z,8540.00
2018-08-18T11:56:01.960Z,9208.00
2018-08-18T11:57:02.095Z,9844.00
2018-08-18T11:58:02.250Z,9900.00
2018-08-18T11:59:02.376Z,9452.00
2018-08-18T12:00:02.551Z,9432.00
2018-08-18T12:01:02.720Z,9688.00
2018-08-18T12:02:02.876Z,9492.00
2018-08-18T12:03:03.018Z,8908.00
2018-08-18T12:04:03.162Z,8800.00
2018-08-18T12:05:03.312Z,8988.00
2018-08-18T12:06:03.461Z,9060.00
2018-08-18T12:07:03.615Z,8984.00
2018-08-18T12:08:03.803Z,9056.00
2018-08-18T12:09:03.899Z,8940.00
2018-08-18T12:10:04.047Z,8844.00
2018-08-18T12:11:04.254Z,8848.00
2018-08-18T12:12:04.333Z,8800.00
2018-08-18T12:13:04.471Z,8720.00
2018-08-18T12:14:04.628Z,8648.00
2018-08-18T12:15:04.773Z,8516.00
2018-08-18T12:16:04.921Z,8632.00
2018-08-18T12:17:05.075Z,8576.00
2018-08-18T12:18:05.236Z,8496.00
2018-08-18T12:19:05.379Z,8760.00
2018-08-18T12:20:05.520Z,8600.00
2018-08-18T12:21:05.672Z,8484.00
2018-08-18T12:22:05.826Z,8524.00
2018-08-18T12:23:05.974Z,8544.00
2018-08-18T12:24:06.119Z,8516.00
2018-08-18T12:25:06.263Z,8556.00
2018-08-18T12:26:06.403Z,8552.00
2018-08-18T12:27:06.550Z,8548.00
2018-08-18T12:28:06.706Z,8448.00
2018-08-18T12:29:06.851Z,8408.00
2018-08-18T12:30:07.078Z,8516.00
2018-08-18T12:31:07.162Z,8648.00
2018-08-18T12:32:07.316Z,8684.00
2018-08-18T12:33:07.461Z,8552.00
2018-08-18T12:34:07.611Z,8680.00
2018-08-18T12:35:07.760Z,8720.00
2018-08-18T12:36:07.914Z,8668.00